Terminal Aerodrome Forecast
Issued by NWS Cleveland, OH

Home | Current Version | Previous Version | Graphics & Text | Print | Product List | Glossary Off
Versions: 1 2 3 4 5 6 7 8 9 10 11 12 13 14 15 16 17

263
FTUS41 KCLE 291730
TAFERI
TAF
KERI 291730Z 2918/3018 01008KT P6SM SKC
     FM300100 14003KT P6SM FEW250
     FM301600 31007KT P6SM SCT250=

USA.gov is the U.S. government's official web portal to all federal, state and local government web resources and services.